Time;durP1;ratioP1;P1;durP2;ratioP2;P2;SDS_P1;SDS_P2;PMS_P1;PMS_P2;Temp;Humidity;BMP_temperature;BMP_pressure;BME280_temperature;BME280_humidity;BME280_pressure;Samples;Min_cycle;Max_cycle;Signal;HPM_P1;HPM_P2
2023/06/13 00:00:35;;;;;;;3.15;1.50;;;;;;;;;;6370794;22;20021;-65
2023/06/13 00:03:03;;;;;;;3.67;1.80;;;;;;;;;;6370730;22;20011;-65
2023/06/13 00:05:31;;;;;;;3.55;1.50;;;;;;;;;;6370681;22;20519;-65
2023/06/13 00:07:58;;;;;;;2.63;1.70;;;;;;;;;;6370762;22;20029;-65
2023/06/13 00:10:26;;;;;;;1.77;1.50;;;;;;;;;;6370604;22;20017;-65
2023/06/13 00:12:54;;;;;;;5.30;2.00;;;;;;;;;;6370509;22;20038;-65
2023/06/13 00:15:21;;;;;;;2.33;1.65;;;;;;;;;;6370787;22;20018;-65
2023/06/13 00:17:49;;;;;;;2.28;1.90;;;;;;;;;;6370444;22;20091;-65
2023/06/13 00:20:16;;;;;;;3.22;1.60;;;;;;;;;;6370485;22;20018;-66
2023/06/13 00:22:45;;;;;;;3.97;1.90;;;;;;;;;;6370697;22;20029;-65
2023/06/13 00:25:12;;;;;;;1.70;1.60;;;;;;;;;;6370668;22;20022;-64
2023/06/13 00:27:40;;;;;;;2.72;1.70;;;;;;;;;;6370545;22;20010;-64
2023/06/13 00:30:08;;;;;;;2.00;1.80;;;;;;;;;;6342518;22;20011;-64
2023/06/13 00:32:35;;;;;;;3.78;1.70;;;;;;;;;;6342594;22;20110;-65
2023/06/13 00:35:03;;;;;;;2.63;1.70;;;;;;;;;;6342401;22;20022;-65
2023/06/13 00:37:34;;;;;;;3.50;1.40;;;;;;;;;;6343697;22;20373;-65
2023/06/13 00:40:02;;;;;;;4.80;2.30;;;;;;;;;;6342349;22;20459;-64
2023/06/13 00:42:31;;;;;;;3.05;1.95;;;;;;;;;;6370403;22;20022;-64
2023/06/13 00:45:26;;;;;;;3.35;2.30;;;;;;;;;;6370390;22;20455;-64
2023/06/13 00:47:55;;;;;;;2.28;1.52;;;;;;;;;;6337045;22;20018;-64
2023/06/13 00:50:26;;;;;;;2.10;1.90;;;;;;;;;;6370379;22;20011;-64
2023/06/13 00:53:08;;;;;;;2.35;1.70;;;;;;;;;;6342373;22;20021;-65
2023/06/13 00:55:36;;;;;;;1.83;1.73;;;;;;;;;;6342528;22;20015;-64
2023/06/13 00:58:06;;;;;;;3.20;1.67;;;;;;;;;;6370124;22;20024;-65
2023/06/13 01:00:37;;;;;;;2.00;1.70;;;;;;;;;;6370223;22;20440;-64
2023/06/13 01:03:10;;;;;;;3.35;1.88;;;;;;;;;;6342572;22;20075;-64
2023/06/13 01:05:38;;;;;;;2.33;1.73;;;;;;;;;;6342156;22;20018;-64
2023/06/13 01:08:13;;;;;;;2.25;1.70;;;;;;;;;;6342488;22;20026;-65
2023/06/13 01:10:41;;;;;;;2.72;1.83;;;;;;;;;;6342378;22;20119;-64
2023/06/13 01:13:11;;;;;;;3.28;1.75;;;;;;;;;;6342231;22;20505;-64
2023/06/13 01:15:43;;;;;;;3.80;1.88;;;;;;;;;;6342274;22;20022;-64
2023/06/13 01:18:11;;;;;;;1.95;1.70;;;;;;;;;;6342203;22;20021;-64
2023/06/13 01:20:40;;;;;;;3.10;2.08;;;;;;;;;;6342355;22;20104;-64
2023/06/13 01:23:10;;;;;;;2.45;1.80;;;;;;;;;;6342292;22;20050;-64
2023/06/13 01:25:52;;;;;;;1.67;1.58;;;;;;;;;;6342445;22;20028;-65
2023/06/13 01:28:22;;;;;;;5.60;1.85;;;;;;;;;;6342297;22;20038;-65
2023/06/13 01:30:50;;;;;;;3.72;1.75;;;;;;;;;;6342619;22;20014;-64
2023/06/13 01:33:19;;;;;;;2.92;1.80;;;;;;;;;;6342204;22;20030;-64
2023/06/13 01:35:48;;;;;;;4.13;1.70;;;;;;;;;;6370311;22;20010;-64
2023/06/13 01:38:15;;;;;;;2.70;2.08;;;;;;;;;;6369858;22;20381;-65
2023/06/13 01:40:44;;;;;;;4.38;1.90;;;;;;;;;;6369772;22;20024;-64
2023/06/13 01:43:11;;;;;;;3.65;2.00;;;;;;;;;;6342313;22;20014;-66
2023/06/13 01:45:41;;;;;;;3.08;1.80;;;;;;;;;;6341699;22;20404;-65
2023/06/13 01:48:11;;;;;;;3.75;1.80;;;;;;;;;;6369883;22;20014;-65
2023/06/13 01:50:51;;;;;;;2.08;1.80;;;;;;;;;;6341904;22;20041;-65
2023/06/13 01:53:41;;;;;;;2.97;2.28;;;;;;;;;;6342290;22;20031;-65
2023/06/13 01:56:12;;;;;;;2.72;2.03;;;;;;;;;;6326836;22;20048;-65
2023/06/13 01:58:52;;;;;;;2.90;1.92;;;;;;;;;;6341809;22;20011;-65
2023/06/13 02:01:21;;;;;;;3.53;1.98;;;;;;;;;;6341883;22;20022;-65
2023/06/13 02:03:48;;;;;;;4.03;2.17;;;;;;;;;;6341925;22;20021;-64
2023/06/13 02:06:17;;;;;;;1.85;1.67;;;;;;;;;;6342050;22;20018;-65
2023/06/13 02:08:45;;;;;;;2.00;1.75;;;;;;;;;;6341995;22;20396;-65
2023/06/13 02:11:12;;;;;;;3.47;2.10;;;;;;;;;;6341773;22;20014;-65
2023/06/13 02:13:40;;;;;;;3.60;2.00;;;;;;;;;;6341817;22;20456;-65
2023/06/13 02:16:08;;;;;;;2.90;2.10;;;;;;;;;;6341766;22;20022;-65
2023/06/13 02:18:37;;;;;;;3.83;2.00;;;;;;;;;;6341491;22;20019;-64
2023/06/13 02:21:04;;;;;;;3.35;2.10;;;;;;;;;;6341839;22;20499;-65
2023/06/13 02:23:32;;;;;;;4.93;2.10;;;;;;;;;;6342187;22;20018;-65
2023/06/13 02:25:59;;;;;;;4.25;2.28;;;;;;;;;;6341967;22;20470;-65
2023/06/13 02:28:27;;;;;;;2.90;2.28;;;;;;;;;;6369851;22;20010;-64
2023/06/13 02:30:54;;;;;;;2.80;2.10;;;;;;;;;;6341788;22;20370;-64
2023/06/13 02:33:22;;;;;;;4.15;1.98;;;;;;;;;;6341675;22;20018;-63
2023/06/13 02:35:49;;;;;;;7.30;2.17;;;;;;;;;;6341773;22;20049;-63
2023/06/13 02:38:18;;;;;;;3.45;2.30;;;;;;;;;;6369530;22;20063;-63
2023/06/13 02:40:46;;;;;;;5.43;2.35;;;;;;;;;;6369327;22;20060;-64
2023/06/13 02:43:14;;;;;;;4.95;2.03;;;;;;;;;;6369458;22;20105;-63
2023/06/13 02:45:41;;;;;;;6.63;2.40;;;;;;;;;;6341827;22;20097;-64
2023/06/13 02:48:09;;;;;;;4.82;2.30;;;;;;;;;;6341800;22;20470;-63
2023/06/13 02:50:36;;;;;;;2.55;2.10;;;;;;;;;;6341723;22;20028;-64
2023/06/13 02:53:05;;;;;;;3.25;2.15;;;;;;;;;;6341570;22;20018;-64
2023/06/13 02:55:32;;;;;;;2.33;2.10;;;;;;;;;;6315789;22;20052;-64
2023/06/13 02:58:00;;;;;;;3.30;2.30;;;;;;;;;;6343111;22;20025;-65
2023/06/13 03:00:28;;;;;;;4.50;2.25;;;;;;;;;;6343534;22;20019;-65
2023/06/13 03:03:04;;;;;;;2.30;2.10;;;;;;;;;;6343326;22;20065;-65
2023/06/13 03:05:36;;;;;;;2.33;2.13;;;;;;;;;;6343678;22;20390;-65
2023/06/13 03:08:07;;;;;;;3.00;2.17;;;;;;;;;;6343540;22;20479;-64
2023/06/13 03:10:35;;;;;;;2.72;2.10;;;;;;;;;;6343302;22;20074;-64
2023/06/13 03:13:04;;;;;;;3.42;2.30;;;;;;;;;;6318020;22;20025;-65
2023/06/13 03:15:32;;;;;;;4.18;2.20;;;;;;;;;;6343147;22;20037;-64
2023/06/13 03:18:01;;;;;;;4.82;2.15;;;;;;;;;;6343042;22;20026;-64
2023/06/13 03:20:30;;;;;;;2.97;2.10;;;;;;;;;;6342977;22;20093;-65
2023/06/13 03:23:01;;;;;;;3.80;2.30;;;;;;;;;;6343238;22;20101;-65
2023/06/13 03:25:29;;;;;;;2.90;2.17;;;;;;;;;;6343119;22;20041;-65
2023/06/13 03:27:57;;;;;;;4.28;2.33;;;;;;;;;;6370860;22;20014;-65
2023/06/13 03:30:25;;;;;;;4.60;2.72;;;;;;;;;;6342851;22;20022;-65
2023/06/13 03:32:54;;;;;;;6.65;2.42;;;;;;;;;;6342984;22;20025;-65
2023/06/13 03:35:25;;;;;;;6.32;2.60;;;;;;;;;;6343445;22;20022;-65
2023/06/13 03:37:53;;;;;;;3.35;2.00;;;;;;;;;;6343144;22;20040;-65
2023/06/13 03:40:20;;;;;;;3.65;2.20;;;;;;;;;;6342684;22;20015;-65
2023/06/13 03:42:50;;;;;;;4.68;2.55;;;;;;;;;;6343185;22;20329;-65
2023/06/13 03:45:19;;;;;;;3.35;2.20;;;;;;;;;;6342962;22;20072;-65
2023/06/13 03:47:47;;;;;;;5.00;2.30;;;;;;;;;;6342886;22;20093;-65
2023/06/13 03:50:15;;;;;;;3.03;2.28;;;;;;;;;;6343139;22;20018;-65
2023/06/13 03:52:44;;;;;;;3.15;2.42;;;;;;;;;;6342848;22;20449;-65
2023/06/13 03:55:13;;;;;;;5.78;3.20;;;;;;;;;;6342991;22;20022;-65
2023/06/13 03:57:45;;;;;;;4.78;2.60;;;;;;;;;;6342889;22;20109;-65
2023/06/13 04:00:13;;;;;;;2.88;2.30;;;;;;;;;;6341158;22;20574;-64
2023/06/13 04:02:41;;;;;;;3.85;2.78;;;;;;;;;;6370341;22;20072;-65
2023/06/13 04:05:13;;;;;;;4.47;2.60;;;;;;;;;;6341867;22;20045;-65
2023/06/13 04:07:42;;;;;;;4.72;2.63;;;;;;;;;;6342327;22;20440;-65
2023/06/13 04:10:10;;;;;;;4.70;2.58;;;;;;;;;;6342466;22;20022;-65
2023/06/13 04:12:39;;;;;;;6.03;2.83;;;;;;;;;;6342614;22;20038;-65
2023/06/13 04:15:06;;;;;;;5.50;2.67;;;;;;;;;;6342706;22;20331;-65
2023/06/13 04:17:36;;;;;;;3.28;2.75;;;;;;;;;;6342865;22;20025;-65
2023/06/13 04:20:09;;;;;;;4.53;2.58;;;;;;;;;;6342523;22;20022;-65
2023/06/13 04:22:36;;;;;;;3.58;2.47;;;;;;;;;;6342591;22;20053;-65
2023/06/13 04:25:04;;;;;;;7.82;3.65;;;;;;;;;;6342665;22;20052;-65
2023/06/13 04:27:34;;;;;;;4.18;2.53;;;;;;;;;;6342968;22;20014;-65
2023/06/13 04:30:02;;;;;;;5.57;2.70;;;;;;;;;;6343004;22;20068;-65
2023/06/13 04:32:33;;;;;;;5.80;3.00;;;;;;;;;;6342960;22;20018;-65
2023/06/13 04:35:01;;;;;;;3.75;2.55;;;;;;;;;;6370532;22;20078;-65
2023/06/13 04:37:30;;;;;;;3.75;2.67;;;;;;;;;;6370509;22;20440;-65
2023/06/13 04:39:58;;;;;;;5.72;2.95;;;;;;;;;;6370068;22;20077;-65
2023/06/13 04:42:29;;;;;;;4.70;2.90;;;;;;;;;;6342789;22;20018;-64
2023/06/13 04:45:01;;;;;;;7.25;3.20;;;;;;;;;;6370527;22;20041;-64
2023/06/13 04:47:30;;;;;;;4.00;2.90;;;;;;;;;;6369965;22;20115;-64
2023/06/13 04:50:19;;;;;;;3.83;2.83;;;;;;;;;;6370069;22;20335;-64
2023/06/13 04:52:50;;;;;;;4.18;3.15;;;;;;;;;;6369907;22;20067;-65
2023/06/13 04:55:18;;;;;;;5.07;3.28;;;;;;;;;;6370245;22;20087;-65
2023/06/13 04:57:45;;;;;;;4.30;3.30;;;;;;;;;;6370020;22;20379;-65
2023/06/13 05:00:15;;;;;;;4.63;3.17;;;;;;;;;;6370099;22;20083;-66
2023/06/13 05:02:42;;;;;;;4.30;3.15;;;;;;;;;;6370555;22;20309;-65
2023/06/13 05:05:10;;;;;;;5.55;3.22;;;;;;;;;;6370612;22;20014;-64
2023/06/13 05:07:39;;;;;;;4.60;2.90;;;;;;;;;;6370244;22;20089;-64
2023/06/13 05:10:08;;;;;;;4.47;3.13;;;;;;;;;;6370161;22;20014;-64
2023/06/13 05:12:39;;;;;;;9.20;3.35;;;;;;;;;;6370039;22;20010;-65
2023/06/13 05:15:07;;;;;;;4.35;3.03;;;;;;;;;;6370241;22;20085;-65
2023/06/13 05:17:37;;;;;;;5.55;3.45;;;;;;;;;;6370105;22;20067;-65
2023/06/13 05:20:06;;;;;;;4.07;3.13;;;;;;;;;;6369581;22;20030;-64
2023/06/13 05:22:33;;;;;;;4.50;3.20;;;;;;;;;;6342556;22;20014;-65
2023/06/13 05:25:01;;;;;;;4.43;3.30;;;;;;;;;;6342235;22;20029;-65
2023/06/13 05:27:28;;;;;;;6.38;3.30;;;;;;;;;;6342208;22;20071;-64
2023/06/13 05:29:56;;;;;;;4.68;3.38;;;;;;;;;;6342466;22;20025;-65
2023/06/13 05:32:23;;;;;;;3.70;3.13;;;;;;;;;;6369948;22;20045;-65
2023/06/13 05:34:51;;;;;;;6.30;3.45;;;;;;;;;;6369903;22;20018;-65
2023/06/13 05:37:19;;;;;;;4.22;3.17;;;;;;;;;;6370053;22;20032;-65
2023/06/13 05:39:46;;;;;;;4.70;3.05;;;;;;;;;;6369757;22;20347;-65
2023/06/13 05:42:14;;;;;;;4.80;3.17;;;;;;;;;;6341965;22;20349;-65
2023/06/13 05:44:41;;;;;;;4.97;2.95;;;;;;;;;;6369941;22;20044;-64
2023/06/13 05:47:09;;;;;;;6.03;3.75;;;;;;;;;;6342195;22;20026;-65
2023/06/13 05:49:36;;;;;;;8.18;3.83;;;;;;;;;;6370154;22;20024;-64
2023/06/13 05:52:04;;;;;;;7.15;3.42;;;;;;;;;;6369879;22;20017;-65
2023/06/13 05:54:32;;;;;;;4.10;2.97;;;;;;;;;;6342495;22;20366;-64
2023/06/13 05:57:00;;;;;;;4.43;3.42;;;;;;;;;;6369827;22;20094;-64
2023/06/13 05:59:28;;;;;;;5.57;3.47;;;;;;;;;;6369991;22;20014;-64
2023/06/13 06:01:55;;;;;;;8.65;3.63;;;;;;;;;;6369964;22;20089;-64
2023/06/13 06:04:25;;;;;;;4.40;3.45;;;;;;;;;;6369733;22;20038;-64
2023/06/13 06:06:53;;;;;;;4.88;3.40;;;;;;;;;;6369733;22;20428;-64
2023/06/13 06:09:21;;;;;;;5.63;3.55;;;;;;;;;;6369691;22;20011;-64
2023/06/13 06:11:51;;;;;;;5.82;3.60;;;;;;;;;;6369586;22;20018;-65
2023/06/13 06:14:19;;;;;;;8.10;3.75;;;;;;;;;;6369756;22;20018;-65
2023/06/13 06:16:46;;;;;;;6.90;3.83;;;;;;;;;;6369845;22;20261;-64
2023/06/13 06:19:14;;;;;;;7.80;3.78;;;;;;;;;;6369702;22;20014;-65
2023/06/13 06:21:41;;;;;;;4.40;3.20;;;;;;;;;;6369562;22;20094;-64
2023/06/13 06:24:09;;;;;;;5.63;3.55;;;;;;;;;;6369587;22;20018;-65
2023/06/13 06:26:36;;;;;;;5.95;3.55;;;;;;;;;;6369741;22;20131;-65
2023/06/13 06:29:04;;;;;;;9.75;3.83;;;;;;;;;;6342121;22;20022;-64
2023/06/13 06:31:32;;;;;;;6.18;3.88;;;;;;;;;;6370137;22;20014;-64
2023/06/13 06:34:00;;;;;;;5.07;3.30;;;;;;;;;;6372055;22;20343;-64
2023/06/13 06:36:27;;;;;;;9.70;3.67;;;;;;;;;;6371749;22;20041;-65
2023/06/13 06:38:55;;;;;;;4.45;3.40;;;;;;;;;;6343687;22;20071;-64
2023/06/13 06:41:22;;;;;;;6.70;3.60;;;;;;;;;;6371431;22;20068;-64
2023/06/13 06:43:50;;;;;;;6.43;4.18;;;;;;;;;;6371763;22;20015;-64
2023/06/13 06:46:17;;;;;;;7.47;3.92;;;;;;;;;;6371952;22;20021;-64
2023/06/13 06:48:45;;;;;;;5.97;3.30;;;;;;;;;;6371247;22;20014;-65
2023/06/13 06:51:12;;;;;;;5.18;3.58;;;;;;;;;;6371910;22;20343;-64
2023/06/13 06:53:42;;;;;;;5.45;3.88;;;;;;;;;;6371924;22;20392;-65
2023/06/13 06:56:10;;;;;;;7.95;3.65;;;;;;;;;;6371600;22;20011;-64
2023/06/13 06:58:37;;;;;;;5.30;4.28;;;;;;;;;;6371861;22;20067;-64
2023/06/13 07:01:05;;;;;;;6.35;3.78;;;;;;;;;;6371676;22;20093;-64
2023/06/13 07:03:32;;;;;;;6.00;3.42;;;;;;;;;;6371427;22;20017;-64
2023/06/13 07:06:00;;;;;;;6.07;4.30;;;;;;;;;;6371421;22;20037;-65
2023/06/13 07:08:28;;;;;;;5.63;4.35;;;;;;;;;;6343782;22;20015;-65
2023/06/13 07:10:55;;;;;;;11.40;3.40;;;;;;;;;;6318308;22;20018;-65
2023/06/13 07:13:23;;;;;;;6.50;4.00;;;;;;;;;;6371341;22;20395;-65
2023/06/13 07:15:50;;;;;;;5.35;3.90;;;;;;;;;;6371417;22;20097;-65
2023/06/13 07:18:18;;;;;;;6.18;3.83;;;;;;;;;;6371626;22;20081;-65
2023/06/13 07:20:45;;;;;;;6.60;4.03;;;;;;;;;;6343200;22;20047;-65
2023/06/13 07:23:13;;;;;;;7.05;3.85;;;;;;;;;;6371196;22;20091;-65
2023/06/13 07:25:41;;;;;;;8.18;4.40;;;;;;;;;;6371372;22;20048;-65
2023/06/13 07:28:08;;;;;;;5.18;4.38;;;;;;;;;;6343530;22;20432;-65
2023/06/13 07:30:36;;;;;;;6.68;4.00;;;;;;;;;;6371077;22;20018;-65
2023/06/13 07:33:04;;;;;;;6.53;3.67;;;;;;;;;;6371675;22;20014;-65
2023/06/13 07:35:32;;;;;;;5.63;4.10;;;;;;;;;;6371185;22;20094;-65
2023/06/13 07:37:59;;;;;;;7.68;4.15;;;;;;;;;;6343654;22;20018;-65
2023/06/13 07:40:27;;;;;;;5.85;4.00;;;;;;;;;;6370824;22;20098;-65
2023/06/13 07:42:54;;;;;;;7.38;4.47;;;;;;;;;;6370561;22;20026;-64
2023/06/13 07:45:22;;;;;;;7.30;3.88;;;;;;;;;;6371058;22;20381;-65
2023/06/13 07:47:53;;;;;;;6.50;5.03;;;;;;;;;;6370948;22;20042;-65
2023/06/13 07:50:21;;;;;;;7.00;4.10;;;;;;;;;;6371009;22;20014;-65
2023/06/13 07:52:49;;;;;;;10.65;4.10;;;;;;;;;;6370992;22;20018;-63
2023/06/13 07:55:16;;;;;;;7.68;4.00;;;;;;;;;;6370790;22;20014;-64
2023/06/13 07:57:45;;;;;;;7.57;3.97;;;;;;;;;;6371045;22;20014;-64
2023/06/13 08:00:26;;;;;;;6.70;3.90;;;;;;;;;;6370915;22;20045;-65
2023/06/13 08:02:53;;;;;;;6.45;3.80;;;;;;;;;;6370840;22;20015;-64
2023/06/13 08:05:21;;;;;;;4.97;3.40;;;;;;;;;;6371088;22;20026;-64
2023/06/13 08:07:50;;;;;;;10.80;4.07;;;;;;;;;;6371049;22;20015;-65
2023/06/13 08:10:18;;;;;;;6.22;3.72;;;;;;;;;;6370712;22;20022;-65
2023/06/13 08:12:45;;;;;;;8.05;3.45;;;;;;;;;;6370684;22;20014;-64
2023/06/13 08:15:14;;;;;;;6.45;3.58;;;;;;;;;;6342970;22;20018;-65
2023/06/13 08:17:41;;;;;;;7.60;3.63;;;;;;;;;;6370733;22;20015;-64
2023/06/13 08:20:10;;;;;;;6.47;3.83;;;;;;;;;;6370935;22;20359;-64
2023/06/13 08:22:39;;;;;;;5.13;3.80;;;;;;;;;;6370650;22;20014;-64
2023/06/13 08:25:10;;;;;;;8.40;3.60;;;;;;;;;;6371132;22;20081;-65
2023/06/13 08:27:38;;;;;;;4.70;3.60;;;;;;;;;;6370691;22;20041;-64
2023/06/13 08:30:07;;;;;;;4.20;3.38;;;;;;;;;;6343796;22;20037;-64
2023/06/13 08:32:36;;;;;;;5.18;4.10;;;;;;;;;;6342995;22;20448;-65
2023/06/13 08:35:04;;;;;;;7.78;3.88;;;;;;;;;;6342637;22;20445;-63
2023/06/13 08:37:31;;;;;;;7.85;3.80;;;;;;;;;;6370439;22;20051;-64
2023/06/13 08:39:58;;;;;;;6.93;3.95;;;;;;;;;;6370374;22;20028;-63
2023/06/13 08:42:26;;;;;;;5.97;4.07;;;;;;;;;;6370540;22;20038;-63
2023/06/13 08:44:54;;;;;;;5.00;3.53;;;;;;;;;;6370515;22;20072;-64
2023/06/13 08:47:21;;;;;;;7.25;4.10;;;;;;;;;;6370501;22;20019;-64
2023/06/13 08:50:04;;;;;;;6.57;3.47;;;;;;;;;;6346354;22;20436;-64
2023/06/13 08:52:38;;;;;;;5.25;3.13;;;;;;;;;;6342659;22;20022;-64
2023/06/13 08:55:12;;;;;;;5.75;3.95;;;;;;;;;;6370311;22;20011;-65
2023/06/13 08:58:01;;;;;;;5.53;3.50;;;;;;;;;;6372189;22;20014;-64
2023/06/13 09:00:33;;;;;;;8.77;3.53;;;;;;;;;;6371701;22;20316;-64
2023/06/13 09:03:00;;;;;;;4.20;3.58;;;;;;;;;;6371086;22;20392;-63
2023/06/13 09:05:29;;;;;;;4.80;3.60;;;;;;;;;;6372237;22;20010;-63
2023/06/13 09:07:58;;;;;;;7.22;4.43;;;;;;;;;;6371181;22;20015;-64
2023/06/13 09:10:46;;;;;;;6.80;4.25;;;;;;;;;;6371093;22;20026;-64
2023/06/13 09:13:15;;;;;;;8.35;4.68;;;;;;;;;;6371465;22;20025;-64
2023/06/13 09:15:44;;;;;;;4.82;3.92;;;;;;;;;;6371278;22;20022;-64
2023/06/13 09:18:12;;;;;;;6.82;4.13;;;;;;;;;;6370918;22;20021;-63
2023/06/13 09:20:39;;;;;;;6.05;4.53;;;;;;;;;;6371251;22;20017;-64
2023/06/13 09:23:07;;;;;;;6.30;3.83;;;;;;;;;;6370852;22;20036;-64
2023/06/13 09:25:36;;;;;;;5.68;3.67;;;;;;;;;;6370960;22;20309;-64
2023/06/13 09:28:22;;;;;;;4.80;4.10;;;;;;;;;;6371211;22;20475;-64
2023/06/13 09:30:50;;;;;;;3.95;3.50;;;;;;;;;;6371693;22;20025;-64
2023/06/13 09:33:17;;;;;;;5.80;3.70;;;;;;;;;;6371447;22;20046;-64
2023/06/13 09:35:45;;;;;;;4.68;3.47;;;;;;;;;;6371505;22;20037;-64
2023/06/13 09:38:13;;;;;;;5.75;3.55;;;;;;;;;;6343160;22;20333;-64
2023/06/13 09:40:50;;;;;;;4.53;3.72;;;;;;;;;;6371317;22;20010;-64
2023/06/13 09:43:18;;;;;;;5.85;3.40;;;;;;;;;;6372040;22;20022;-64
2023/06/13 09:45:47;;;;;;;4.10;3.55;;;;;;;;;;6371549;22;20032;-64
2023/06/13 09:48:15;;;;;;;5.00;3.60;;;;;;;;;;6370924;22;20014;-64
2023/06/13 09:50:43;;;;;;;7.13;3.97;;;;;;;;;;6371406;22;20313;-64
2023/06/13 09:53:10;;;;;;;10.27;4.07;;;;;;;;;;6344355;22;20446;-64
2023/06/13 09:55:38;;;;;;;4.65;3.40;;;;;;;;;;6343409;22;20024;-64
2023/06/13 09:58:05;;;;;;;5.45;3.90;;;;;;;;;;6343398;22;20046;-65
2023/06/13 10:00:59;;;;;;;4.82;3.25;;;;;;;;;;6371163;22;20388;-64
2023/06/13 10:03:28;;;;;;;5.82;3.72;;;;;;;;;;6371103;22;20024;-64
2023/06/13 10:06:00;;;;;;;4.85;3.50;;;;;;;;;;6370873;22;20038;-63
2023/06/13 10:08:28;;;;;;;5.57;3.40;;;;;;;;;;6344041;22;20089;-63
2023/06/13 10:10:56;;;;;;;6.22;4.00;;;;;;;;;;6370776;22;20018;-64
2023/06/13 10:13:26;;;;;;;4.97;3.30;;;;;;;;;;6342659;22;20018;-64
2023/06/13 10:15:58;;;;;;;4.22;3.70;;;;;;;;;;6371353;22;20440;-64
2023/06/13 10:18:30;;;;;;;5.68;3.25;;;;;;;;;;6371354;22;20021;-64
2023/06/13 10:20:59;;;;;;;6.90;3.60;;;;;;;;;;6343274;22;20125;-64
2023/06/13 10:23:28;;;;;;;6.22;3.50;;;;;;;;;;6343385;22;20022;-63
2023/06/13 10:25:58;;;;;;;5.90;3.20;;;;;;;;;;6370652;22;20441;-63
2023/06/13 10:28:27;;;;;;;5.70;3.13;;;;;;;;;;6370932;22;20318;-64
2023/06/13 10:31:17;;;;;;;8.05;3.08;;;;;;;;;;6370701;22;20023;-65
2023/06/13 10:33:52;;;;;;;4.32;3.22;;;;;;;;;;6300122;22;20314;-63
2023/06/13 10:36:27;;;;;;;7.45;3.60;;;;;;;;;;6371006;22;20038;-63
2023/06/13 10:39:04;;;;;;;4.40;3.55;;;;;;;;;;6371278;22;20017;-63
2023/06/13 10:41:41;;;;;;;5.28;3.20;;;;;;;;;;6371350;22;20068;-64
2023/06/13 10:44:28;;;;;;;4.97;2.80;;;;;;;;;;6343661;22;20019;-64
2023/06/13 10:47:01;;;;;;;4.28;3.22;;;;;;;;;;6348874;22;20015;-64
2023/06/13 10:49:42;;;;;;;4.80;2.85;;;;;;;;;;6371038;22;20414;-64
2023/06/13 10:52:15;;;;;;;8.65;3.25;;;;;;;;;;6371042;22;20015;-64
2023/06/13 10:54:42;;;;;;;6.65;3.67;;;;;;;;;;6371019;22;20037;-65
2023/06/13 10:57:10;;;;;;;6.05;3.25;;;;;;;;;;6370817;22;20014;-65
2023/06/13 10:59:38;;;;;;;4.40;3.13;;;;;;;;;;6343169;22;20105;-65
2023/06/13 11:02:09;;;;;;;6.90;3.35;;;;;;;;;;6371483;22;20025;-65
2023/06/13 11:04:40;;;;;;;5.22;3.15;;;;;;;;;;6370925;22;20089;-64
2023/06/13 11:07:23;;;;;;;4.50;2.92;;;;;;;;;;6370776;22;20347;-65
2023/06/13 11:10:02;;;;;;;5.97;3.20;;;;;;;;;;6371160;22;20022;-64
2023/06/13 11:12:30;;;;;;;7.28;3.30;;;;;;;;;;6343475;22;20017;-65
2023/06/13 11:14:59;;;;;;;4.80;3.08;;;;;;;;;;6370720;22;20021;-65
2023/06/13 11:17:28;;;;;;;5.32;3.30;;;;;;;;;;6342787;22;20038;-65
2023/06/13 11:19:59;;;;;;;4.25;3.15;;;;;;;;;;6345769;22;20381;-64
2023/06/13 11:22:27;;;;;;;4.60;2.85;;;;;;;;;;6372684;22;20101;-65
2023/06/13 11:24:56;;;;;;;4.53;3.03;;;;;;;;;;6372958;22;20020;-64
2023/06/13 11:27:24;;;;;;;4.18;3.05;;;;;;;;;;6372680;22;20018;-64
2023/06/13 11:29:52;;;;;;;7.63;3.30;;;;;;;;;;6372604;22;20015;-65
2023/06/13 11:32:21;;;;;;;3.40;2.65;;;;;;;;;;6319598;22;20018;-65
2023/06/13 11:34:50;;;;;;;3.42;2.90;;;;;;;;;;6372854;22;20011;-64
2023/06/13 11:37:38;;;;;;;5.72;3.38;;;;;;;;;;6372908;22;20371;-64
2023/06/13 11:40:09;;;;;;;3.55;2.72;;;;;;;;;;6372518;22;20025;-64
2023/06/13 11:42:40;;;;;;;3.70;2.80;;;;;;;;;;6372538;22;20045;-63
2023/06/13 11:45:08;;;;;;;4.35;3.20;;;;;;;;;;6372630;22;20072;-64
2023/06/13 11:47:36;;;;;;;5.60;3.10;;;;;;;;;;6372617;22;20025;-64
2023/06/13 11:50:04;;;;;;;3.30;2.92;;;;;;;;;;6371817;22;20011;-63
2023/06/13 11:52:31;;;;;;;8.75;3.03;;;;;;;;;;6371804;22;20021;-65
2023/06/13 11:54:59;;;;;;;5.20;2.90;;;;;;;;;;6372330;22;20018;-63
2023/06/13 11:57:48;;;;;;;6.13;3.30;;;;;;;;;;6372673;22;20399;-63
2023/06/13 12:00:16;;;;;;;9.10;5.05;;;;;;;;;;6372454;22;20092;-64
2023/06/13 12:02:45;;;;;;;5.75;3.65;;;;;;;;;;6372186;22;20015;-63
2023/06/13 12:05:13;;;;;;;6.28;3.40;;;;;;;;;;6372102;22;20464;-63
2023/06/13 12:07:43;;;;;;;7.03;3.20;;;;;;;;;;6372122;22;20021;-64
2023/06/13 12:10:11;;;;;;;4.35;3.25;;;;;;;;;;6372328;22;20010;-65
2023/06/13 12:12:38;;;;;;;7.13;3.10;;;;;;;;;;6344412;22;20325;-65
2023/06/13 12:15:13;;;;;;;3.78;2.80;;;;;;;;;;6372493;22;20014;-64
2023/06/13 12:18:01;;;;;;;3.63;2.78;;;;;;;;;;6372163;22;20015;-64
2023/06/13 12:20:29;;;;;;;4.53;3.03;;;;;;;;;;6372114;22;20049;-64
2023/06/13 12:23:00;;;;;;;3.78;3.03;;;;;;;;;;6371841;22;20112;-64
2023/06/13 12:25:30;;;;;;;4.40;3.35;;;;;;;;;;6372019;22;20015;-64
2023/06/13 12:28:01;;;;;;;4.63;2.70;;;;;;;;;;6371898;22;20019;-64
2023/06/13 12:30:36;;;;;;;4.18;3.08;;;;;;;;;;6318255;22;20018;-63
2023/06/13 12:33:06;;;;;;;4.72;2.85;;;;;;;;;;6343837;22;20379;-64
2023/06/13 12:35:34;;;;;;;7.57;3.58;;;;;;;;;;6372228;22;20010;-63
2023/06/13 12:38:02;;;;;;;4.30;3.13;;;;;;;;;;6372211;22;20099;-63
2023/06/13 12:40:33;;;;;;;5.45;3.00;;;;;;;;;;6371842;22;20010;-63
2023/06/13 12:43:02;;;;;;;3.50;3.08;;;;;;;;;;6371935;22;20071;-65
2023/06/13 12:45:33;;;;;;;3.10;2.80;;;;;;;;;;6344133;22;20018;-64
2023/06/13 12:48:01;;;;;;;6.55;3.10;;;;;;;;;;6371811;22;20064;-64
2023/06/13 12:50:30;;;;;;;6.65;2.85;;;;;;;;;;6343459;22;20022;-64
2023/06/13 12:53:07;;;;;;;4.88;2.97;;;;;;;;;;6370965;22;20018;-64
2023/06/13 12:55:36;;;;;;;5.35;2.95;;;;;;;;;;6371659;22;20010;-64
2023/06/13 12:58:22;;;;;;;7.78;3.40;;;;;;;;;;6371060;22;20018;-65
2023/06/13 13:00:52;;;;;;;4.68;3.35;;;;;;;;;;6370985;22;20014;-64
2023/06/13 13:03:20;;;;;;;4.88;3.35;;;;;;;;;;6370238;22;20378;-65
2023/06/13 13:05:49;;;;;;;6.53;3.53;;;;;;;;;;6370402;22;20007;-64
2023/06/13 13:08:18;;;;;;;7.40;3.45;;;;;;;;;;6370873;22;20021;-64
2023/06/13 13:10:48;;;;;;;4.10;3.10;;;;;;;;;;6342669;22;20064;-64
2023/06/13 13:13:16;;;;;;;4.13;2.83;;;;;;;;;;6343087;22;20022;-64
2023/06/13 13:15:45;;;;;;;3.80;3.03;;;;;;;;;;6370838;22;20018;-63
2023/06/13 13:18:13;;;;;;;4.68;3.03;;;;;;;;;;6343698;22;20021;-64
2023/06/13 13:20:40;;;;;;;3.60;2.80;;;;;;;;;;6371284;22;20021;-64
2023/06/13 13:23:08;;;;;;;6.05;3.47;;;;;;;;;;6370300;22;20014;-64
2023/06/13 13:25:36;;;;;;;5.10;2.83;;;;;;;;;;6370693;22;20022;-64
2023/06/13 13:28:05;;;;;;;5.80;3.08;;;;;;;;;;6370141;22;20034;-64
2023/06/13 13:30:32;;;;;;;5.80;2.90;;;;;;;;;;6370533;22;20332;-64
2023/06/13 13:33:03;;;;;;;4.65;2.97;;;;;;;;;;6371136;22;20018;-64
2023/06/13 13:35:30;;;;;;;3.40;2.80;;;;;;;;;;6371540;22;20068;-64
2023/06/13 13:37:58;;;;;;;3.88;2.72;;;;;;;;;;6371462;22;20328;-64
2023/06/13 13:40:25;;;;;;;6.57;3.78;;;;;;;;;;6370525;22;20018;-63
2023/06/13 13:42:54;;;;;;;4.63;3.20;;;;;;;;;;6370058;22;20022;-63
2023/06/13 13:45:22;;;;;;;10.77;2.97;;;;;;;;;;6367948;22;20011;-64
2023/06/13 13:47:50;;;;;;;3.25;2.90;;;;;;;;;;6370053;22;20019;-63
2023/06/13 13:50:18;;;;;;;3.22;2.90;;;;;;;;;;6369475;22;20384;-64
2023/06/13 13:52:45;;;;;;;5.03;3.58;;;;;;;;;;6368846;22;20021;-63
2023/06/13 13:55:14;;;;;;;6.35;3.58;;;;;;;;;;6341320;22;20422;-63
2023/06/13 13:57:42;;;;;;;5.15;3.70;;;;;;;;;;6370430;22;20018;-63
2023/06/13 14:00:10;;;;;;;8.00;3.10;;;;;;;;;;6369550;22;20014;-63
2023/06/13 14:02:37;;;;;;;6.28;3.28;;;;;;;;;;6369728;22;20018;-64
2023/06/13 14:05:05;;;;;;;6.80;3.40;;;;;;;;;;6343266;22;20093;-64
2023/06/13 14:07:34;;;;;;;7.05;3.95;;;;;;;;;;6370795;22;20110;-63
2023/06/13 14:10:02;;;;;;;5.45;3.30;;;;;;;;;;6343288;22;20045;-64
2023/06/13 14:12:29;;;;;;;4.50;3.00;;;;;;;;;;6343025;22;20018;-63
2023/06/13 14:14:57;;;;;;;3.92;3.08;;;;;;;;;;6343297;22;20015;-62
2023/06/13 14:17:24;;;;;;;4.40;2.85;;;;;;;;;;6370877;22;20022;-62
2023/06/13 14:19:52;;;;;;;4.95;2.85;;;;;;;;;;6370751;22;20014;-62
2023/06/13 14:22:20;;;;;;;5.75;3.30;;;;;;;;;;6370025;22;20018;-64
2023/06/13 14:24:47;;;;;;;4.30;3.00;;;;;;;;;;6341845;22;20394;-64
2023/06/13 14:27:15;;;;;;;3.58;3.10;;;;;;;;;;6370458;22;20019;-64
2023/06/13 14:29:42;;;;;;;4.28;3.17;;;;;;;;;;6369621;22;20017;-64
2023/06/13 14:32:10;;;;;;;3.88;2.53;;;;;;;;;;6341833;22;20114;-64
2023/06/13 14:34:37;;;;;;;4.18;2.78;;;;;;;;;;6369804;22;20021;-63
2023/06/13 14:37:05;;;;;;;5.93;3.22;;;;;;;;;;6369765;22;20021;-63
2023/06/13 14:39:33;;;;;;;4.22;3.20;;;;;;;;;;6342030;22;20326;-64
2023/06/13 14:42:01;;;;;;;7.68;2.95;;;;;;;;;;6369493;22;20010;-63
2023/06/13 14:44:28;;;;;;;8.27;3.78;;;;;;;;;;6368780;22;20045;-63
2023/06/13 14:46:56;;;;;;;6.35;3.90;;;;;;;;;;6370284;22;20064;-63
2023/06/13 14:49:23;;;;;;;6.00;3.63;;;;;;;;;;6343072;22;20066;-63
2023/06/13 14:51:51;;;;;;;6.97;3.42;;;;;;;;;;6370211;22;20071;-63
2023/06/13 14:54:19;;;;;;;9.63;3.42;;;;;;;;;;6372031;22;20025;-64
2023/06/13 14:56:46;;;;;;;6.07;2.80;;;;;;;;;;6370911;22;20509;-64